createdAt,value
2022-09-17T00:04:05.004Z,10.47
2022-09-17T00:09:07.889Z,10.29
2022-09-17T00:14:14.345Z,10.09
2022-09-17T00:19:18.969Z,9.95
2022-09-17T00:24:20.906Z,9.95
2022-09-17T00:29:22.440Z,10.01
2022-09-17T00:34:23.998Z,10.03
2022-09-17T00:39:25.542Z,10.05
2022-09-17T00:44:48.198Z,10.04
2022-09-17T00:49:55.589Z,10.07
2022-09-17T00:55:05.879Z,10.09
2022-09-17T01:07:08.390Z,10.11
2022-09-17T01:12:12.807Z,10.08
2022-09-17T01:17:43.499Z,10.11
2022-09-17T01:23:13.038Z,10.11
2022-09-17T01:28:21.158Z,10.05
2022-09-17T01:33:30.684Z,9.94
2022-09-17T01:38:55.192Z,9.89
2022-09-17T01:44:11.425Z,9.85
2022-09-17T01:49:16.609Z,9.75
2022-09-17T01:54:26.700Z,9.72
2022-09-17T01:59:36.945Z,9.71
2022-09-17T02:04:52.263Z,9.65
2022-09-17T02:10:07.061Z,9.59
2022-09-17T02:15:15.699Z,9.56
2022-09-17T02:20:22.819Z,9.53
2022-09-17T02:25:33.220Z,9.48
2022-09-17T02:30:35.423Z,9.41
2022-09-17T02:35:37.909Z,9.29
2022-09-17T02:40:48.749Z,9.15
2022-09-17T02:46:15.697Z,8.92
2022-09-17T02:51:33.199Z,8.72
2022-09-17T02:56:37.391Z,8.54
2022-09-17T03:01:45.035Z,8.40
2022-09-17T03:06:47.655Z,8.30
2022-09-17T03:11:49.223Z,8.23
2022-09-17T03:16:50.752Z,8.13
2022-09-17T03:21:52.267Z,8.07
2022-09-17T03:26:53.854Z,8.02
2022-09-17T03:31:55.353Z,8.06
2022-09-17T03:36:57.077Z,8.07
2022-09-17T03:41:58.582Z,8.02
2022-09-17T03:47:00.087Z,8.08
2022-09-17T03:52:01.982Z,8.22
2022-09-17T03:57:03.659Z,8.42
2022-09-17T04:02:05.268Z,8.56
2022-09-17T04:07:06.858Z,8.71
2022-09-17T04:12:08.385Z,8.85
2022-09-17T04:17:09.998Z,8.99
2022-09-17T04:22:11.571Z,8.99
2022-09-17T04:27:13.106Z,8.91
2022-09-17T04:32:14.658Z,8.99
2022-09-17T04:37:16.404Z,9.10
2022-09-17T04:42:18.547Z,9.17
2022-09-17T04:47:20.074Z,9.16
2022-09-17T04:52:21.565Z,9.18
2022-09-17T04:57:25.517Z,9.18
2022-09-17T05:02:27.211Z,9.20
2022-09-17T05:07:28.770Z,9.19
2022-09-17T05:12:34.354Z,9.18
2022-09-17T05:17:36.121Z,9.21
2022-09-17T05:22:55.801Z,9.20
2022-09-17T05:27:57.302Z,9.24
2022-09-17T05:33:01.115Z,9.21
2022-09-17T05:38:07.757Z,9.27
2022-09-17T05:43:09.746Z,9.28
2022-09-17T05:48:15.160Z,9.29
2022-09-17T05:53:16.785Z,9.27
2022-09-17T05:58:19.674Z,9.27
2022-09-17T06:03:22.882Z,9.27
2022-09-17T06:08:25.974Z,9.16
2022-09-17T06:13:27.487Z,9.10
2022-09-17T06:18:30.811Z,9.02
2022-09-17T06:23:37.231Z,8.97
2022-09-17T06:28:41.631Z,9.00
2022-09-17T06:33:43.463Z,9.03
2022-09-17T06:38:45.300Z,9.13
2022-09-17T06:43:46.859Z,9.27
2022-09-17T06:48:48.355Z,9.51
2022-09-17T06:53:49.987Z,9.61
2022-09-17T06:58:51.552Z,9.73
2022-09-17T07:03:53.335Z,9.88
2022-09-17T07:08:54.903Z,10.06
2022-09-17T07:13:56.531Z,10.13
2022-09-17T07:18:58.132Z,10.40
2022-09-17T07:23:59.646Z,10.88
2022-09-17T07:29:01.315Z,11.35
2022-09-17T07:34:03.200Z,11.64
2022-09-17T07:39:04.911Z,11.74
2022-09-17T07:44:09.770Z,12.02
2022-09-17T07:49:11.272Z,12.44
2022-09-17T07:54:12.820Z,12.76
2022-09-17T07:59:14.366Z,12.76
2022-09-17T08:04:15.932Z,12.87
2022-09-17T08:09:18.564Z,13.01
2022-09-17T08:14:20.103Z,13.09
2022-09-17T08:19:22.234Z,13.17
2022-09-17T08:24:25.887Z,13.00
2022-09-17T08:29:28.656Z,13.06
2022-09-17T08:34:31.579Z,13.68
2022-09-17T08:39:33.096Z,13.95
2022-09-17T08:44:41.323Z,14.02
2022-09-17T08:49:53.950Z,14.28
2022-09-17T08:55:07.667Z,14.25
2022-09-17T09:00:17.119Z,14.19
2022-09-17T09:05:22.782Z,14.38
2022-09-17T09:10:39.371Z,14.39
2022-09-17T09:15:47.681Z,14.60
2022-09-17T09:20:55.751Z,15.06
2022-09-17T09:26:16.075Z,15.54
2022-09-17T09:31:42.550Z,15.64
2022-09-17T09:36:45.373Z,15.75
2022-09-17T09:41:54.320Z,15.58
2022-09-17T09:47:12.368Z,15.60
2022-09-17T09:52:42.867Z,15.58
2022-09-17T09:57:49.852Z,15.78
2022-09-17T10:03:01.729Z,16.44
2022-09-17T10:08:14.225Z,16.54
2022-09-17T10:13:17.739Z,16.95
2022-09-17T10:18:22.078Z,17.39
2022-09-17T10:23:26.517Z,17.56
2022-09-17T10:28:50.406Z,17.70
2022-09-17T10:34:01.269Z,17.41
2022-09-17T10:39:28.791Z,16.75
2022-09-17T10:44:33.550Z,16.21
2022-09-17T10:49:40.937Z,16.82
2022-09-17T10:55:19.918Z,17.42
2022-09-17T11:00:23.556Z,17.54
2022-09-17T11:05:41.496Z,17.23
2022-09-17T11:11:01.713Z,16.90
2022-09-17T11:16:34.256Z,16.43
2022-09-17T11:21:46.622Z,16.97
2022-09-17T11:26:57.741Z,17.51
2022-09-17T11:32:24.106Z,17.43
2022-09-17T11:37:37.267Z,16.42
2022-09-17T11:42:56.241Z,16.55
2022-09-17T11:48:11.864Z,16.77
2022-09-17T11:53:25.595Z,16.92
2022-09-17T11:58:56.574Z,16.63
2022-09-17T12:04:33.698Z,15.41
2022-09-17T12:09:39.204Z,13.59
2022-09-17T12:14:51.438Z,13.00
2022-09-17T12:20:25.031Z,13.03
2022-09-17T12:25:34.198Z,12.95
2022-09-17T12:30:44.231Z,12.78
2022-09-17T12:36:05.253Z,12.86
2022-09-17T12:41:15.735Z,13.38
2022-09-17T12:46:30.034Z,13.90
2022-09-17T12:51:31.555Z,14.29
2022-09-17T12:56:41.890Z,14.86
2022-09-17T13:01:52.424Z,15.17
2022-09-17T13:06:59.623Z,15.49
2022-09-17T13:12:27.443Z,15.42
2022-09-17T13:18:27.034Z,15.23
2022-09-17T13:23:42.271Z,15.42
2022-09-17T13:28:47.863Z,15.58
2022-09-17T13:33:55.317Z,16.12
2022-09-17T13:38:57.038Z,16.46
2022-09-17T13:43:59.087Z,16.88
2022-09-17T13:49:04.505Z,17.12
2022-09-17T13:54:08.984Z,16.71
2022-09-17T13:59:18.091Z,16.41
2022-09-17T14:04:35.850Z,16.04
2022-09-17T14:09:55.189Z,15.73
2022-09-17T14:14:57.243Z,15.53
2022-09-17T14:19:59.154Z,14.87
2022-09-17T14:25:01.756Z,14.38
2022-09-17T14:30:03.227Z,14.67
2022-09-17T14:35:17.869Z,14.70
2022-09-17T14:40:24.048Z,14.35
2022-09-17T14:45:36.790Z,14.43
2022-09-17T14:50:38.445Z,14.53
2022-09-17T14:55:41.407Z,14.43
2022-09-17T15:00:52.030Z,14.28
2022-09-17T15:05:54.357Z,14.24
2022-09-17T15:11:06.763Z,14.41
2022-09-17T15:16:25.275Z,14.68
2022-09-17T15:21:35.924Z,14.88
2022-09-17T15:26:41.547Z,15.03
2022-09-17T15:31:43.149Z,15.26
2022-09-17T15:37:04.839Z,15.53
2022-09-17T15:42:18.061Z,15.65
2022-09-17T15:47:36.773Z,15.65
2022-09-17T15:52:38.328Z,15.67
2022-09-17T15:57:39.880Z,15.39
2022-09-17T16:02:41.569Z,14.99
2022-09-17T16:07:45.581Z,14.66
2022-09-17T16:12:49.622Z,14.30
2022-09-17T16:17:51.135Z,13.92
2022-09-17T16:22:53.535Z,13.39
2022-09-17T16:28:04.205Z,13.07
2022-09-17T16:33:06.823Z,12.69
2022-09-17T16:38:09.982Z,12.47
2022-09-17T16:43:11.552Z,12.35
2022-09-17T16:48:13.137Z,12.24
2022-09-17T16:53:14.691Z,12.19
2022-09-17T16:58:16.394Z,12.04
2022-09-17T17:03:18.043Z,11.09
2022-09-17T17:08:19.534Z,10.10
2022-09-17T17:13:21.076Z,9.90
2022-09-17T17:18:24.448Z,10.05
2022-09-17T17:23:25.934Z,10.28
2022-09-17T17:28:27.473Z,10.46
2022-09-17T17:33:29.291Z,10.51
2022-09-17T17:38:30.857Z,10.43
2022-09-17T17:43:32.626Z,10.34
2022-09-17T17:48:34.767Z,10.04
2022-09-17T17:53:37.003Z,9.92
2022-09-17T17:58:39.650Z,9.86
2022-09-17T18:03:41.383Z,9.86
2022-09-17T18:08:44.107Z,9.69
2022-09-17T18:13:46.007Z,9.65
2022-09-17T18:18:47.816Z,9.65
2022-09-17T18:23:50.503Z,9.65
2022-09-17T18:28:52.633Z,9.64
2022-09-17T18:33:58.468Z,9.57
2022-09-17T18:44:26.849Z,8.21
2022-09-17T18:49:28.358Z,8.18
2022-09-17T18:54:29.862Z,8.38
2022-09-17T18:59:36.215Z,8.35
2022-09-17T19:04:37.701Z,8.35
2022-09-17T19:09:39.222Z,8.38
2022-09-17T19:14:40.714Z,8.46
2022-09-17T19:19:42.207Z,8.44
2022-09-17T19:24:43.701Z,8.40
2022-09-17T19:29:45.255Z,8.38
2022-09-17T19:34:46.841Z,8.40
2022-09-17T19:39:48.379Z,8.49
2022-09-17T19:44:49.874Z,8.59
2022-09-17T19:49:52.436Z,8.65
2022-09-17T19:54:53.963Z,8.73
2022-09-17T19:59:55.454Z,8.75
2022-09-17T20:04:56.968Z,8.78
2022-09-17T20:09:59.408Z,8.81
2022-09-17T20:15:00.937Z,8.90
2022-09-17T20:20:03.495Z,8.93
2022-09-17T20:25:05.687Z,8.93
2022-09-17T20:30:07.756Z,8.95
2022-09-17T20:35:09.571Z,8.92
2022-09-17T20:40:11.781Z,8.91
2022-09-17T20:45:13.436Z,8.87
2022-09-17T20:50:15.021Z,8.82
2022-09-17T20:55:17.607Z,8.71
2022-09-17T21:00:21.187Z,8.64
2022-09-17T21:05:22.740Z,8.54
2022-09-17T21:10:26.609Z,8.52
2022-09-17T21:15:28.801Z,8.51
2022-09-17T21:20:30.301Z,8.44
2022-09-17T21:25:31.812Z,8.41
2022-09-17T21:30:33.331Z,8.35
2022-09-17T21:35:34.893Z,8.28
2022-09-17T21:40:36.505Z,8.29
2022-09-17T21:45:40.443Z,8.31
2022-09-17T21:50:41.973Z,8.30
2022-09-17T21:55:43.458Z,8.31
2022-09-17T22:00:44.957Z,8.32
2022-09-17T22:05:46.529Z,8.38
2022-09-17T22:10:48.056Z,8.41
2022-09-17T22:15:58.679Z,8.44
2022-09-17T22:21:00.713Z,8.49
2022-09-17T22:26:04.105Z,8.54
2022-09-17T22:31:09.001Z,8.63
2022-09-17T22:36:16.403Z,8.68
2022-09-17T22:41:23.618Z,8.70
2022-09-17T22:46:27.779Z,8.77
2022-09-17T22:51:30.454Z,8.78
2022-09-17T22:56:35.091Z,8.79
2022-09-17T23:01:37.367Z,8.79
2022-09-17T23:06:42.039Z,8.79
2022-09-17T23:11:43.765Z,8.83
2022-09-17T23:16:47.646Z,8.85
2022-09-17T23:21:49.269Z,8.83
2022-09-17T23:26:50.841Z,8.86
2022-09-17T23:31:52.336Z,8.87
2022-09-17T23:36:53.848Z,8.90
2022-09-17T23:41:56.715Z,8.88
2022-09-17T23:46:58.311Z,8.91
2022-09-17T23:51:59.858Z,8.95
2022-09-17T23:57:01.382Z,8.97
